Flight Track Log - Related Links

Times and Time Zones

All times are in EDT time to prevent confusion due to time zone crossing. See the GJS3710 flight status page for this flight to view local times or setup timezone preferences in your user account.

Time Position Orientation Groundspeed Altitude Reporting Facility
EDT Latitude Longitude Course Direction KTS MPH feet Rate Location/Type
Fri 09:11:03 PM 41.9833 -87.8500 66° East 190 219 2,700  Level Chicago TRACON
Fri 09:11:57 PM 41.9833 -87.7667 90° East 257 296 4,300 1,340 Climbing Chicago TRACON
Fri 09:12:46 PM 41.9867 -87.6922 87° East 267 307 5,000 1,297 Climbing Chicago Center
Fri 09:13:00 PM 42.1113 -87.5008 63° Northeast  Level FlightAware Approximate
Fri 09:13:48 PM 42.0175 -87.5914 68° East 294 338 6,700  Level Chicago Center
Fri 09:14:00 PM 42.1618 -87.3645 66° East  Level FlightAware Approximate
Fri 09:14:50 PM 42.0778 -87.5228 40° Northeast 289 333 9,100  Level Chicago Center
Fri 09:15:00 PM 42.2082 -87.2254 66° East  Level FlightAware Approximate
Fri 09:15:52 PM 42.1386 -87.4164 52° Northeast 309 356 11,800  Level Chicago Center
Fri 09:16:00 PM 42.2535 -87.0895 66° East  Level FlightAware Approximate
Fri 09:16:53 PM 42.1814 -87.3097 62° Northeast 322 371 13,400  Level Chicago Center
Fri 09:17:55 PM 42.2300 -87.1883 62° Northeast 363 418 14,900 1,597 Climbing Chicago Center
Fri 09:18:57 PM 42.2772 -87.0625 63° Northeast 377 434 16,700 1,694 Climbing Chicago Center
Fri 09:19:59 PM 42.2850 -86.9158 86° East 395 455 18,400 1,742 Climbing Chicago Center
Fri 09:21:01 PM 42.2911 -86.7378 87° East 397 457 20,300 1,597 Climbing Chicago Center
Fri 09:22:03 PM 42.2969 -86.5964 87° East 401 461 21,700 1,258 Climbing Chicago Center
Fri 09:23:05 PM 42.3022 -86.4514 87° East 409 471 22,900 1,171 Climbing Chicago Center
Fri 09:24:06 PM 42.3089 -86.2622 87° East 422 486 24,100 1,073 Climbing Chicago Center
Fri 09:25:08 PM 42.3142 -86.1017 87° East 430 495 25,100 919 Climbing Chicago Center
Fri 09:26:10 PM 42.3136 -85.9361 90° East 442 509 26,000 823 Climbing Chicago Center
Fri 09:27:12 PM 42.3119 -85.7664 91° East 453 521 26,800 823 Climbing Chicago Center
Fri 09:28:14 PM 42.3097 -85.5961 91° East 456 525 27,700 871 Climbing Chicago Center
Fri 09:29:16 PM 42.3072 -85.4217 91° East 465 535 28,600 976 Climbing Chicago Center
Fri 09:30:17 PM 42.3047 -85.2133 91° East 465 535 29,700 976 Climbing Chicago Center
Fri 09:31:19 PM 42.3014 -85.0389 91° East 468 539 30,600 871 Climbing Chicago Center
Fri 09:32:21 PM 42.2981 -84.8647 91° East 467 537 31,500 871 Climbing Chicago Center
Fri 09:33:23 PM 42.2936 -84.6903 92° East 468 539 32,400 878 Climbing Chicago Center
Fri 09:34:24 PM 42.2917 -84.5136 91° East 469 540 33,300 953 Climbing Chicago Center
Fri 09:35:10 PM 42.2878 -84.3586 92° East 466 536 34,100 1,019 Climbing Cleveland Center
Fri 09:36:10 PM 42.2953 -84.1850 87° East 461 531 35,100 900 Climbing Cleveland Center
Fri 09:37:10 PM 42.3111 -84.0144 83° East 455 524 35,900 900 Climbing Cleveland Center
Fri 09:38:10 PM 42.3264 -83.8439 83° East 455 524 36,900 950 Climbing Cleveland Center
Fri 09:39:10 PM 42.3433 -83.6847 82° East 449 517 37,800 750 Climbing Cleveland Center
Fri 09:40:10 PM 42.3514 -83.5333 86° East 444 511 38,400 550 Climbing Cleveland Center
Fri 09:41:10 PM 42.3681 -83.3683 82° East 434 499 38,900 300 Climbing Cleveland Center
Fri 09:42:10 PM 42.3803 -83.2003 84° East 446 513 39,000 50 Climbing Cleveland Center
Fri 09:43:10 PM 42.3922 -83.0375 84° East 446 513 39,000  Level Cleveland Center
Fri 09:44:10 PM 42.4042 -82.8722 84° East 441 507 39,000  Level Cleveland Center
Fri 09:45:10 PM 42.4178 -82.7011 84° East 446 513 39,000  Level Cleveland Center
Fri 09:46:10 PM 42.4311 -82.5328 84° East 446 513 39,000  Level Cleveland Center
Fri 09:47:10 PM 42.4444 -82.3558 84° East 456 525 39,000  Level Cleveland Center
Fri 09:48:10 PM 42.4575 -82.1844 84° East 456 525 39,000  Level Cleveland Center
Fri 09:49:10 PM 42.4681 -82.0158 85° East 462 532 39,000  Level Cleveland Center
Fri 09:50:10 PM 42.4803 -81.8417 85° East 462 532 39,000  Level Cleveland Center
Fri 09:51:10 PM 42.4947 -81.6561 84° East 462 532 39,000  Level Cleveland Center
Fri 09:52:10 PM 42.5067 -81.4789 85° East 462 532 39,000  Level Cleveland Center
Fri 09:53:10 PM 42.5183 -81.3239 84° East 462 532 39,000  Level Cleveland Center
Fri 09:54:10 PM 42.5297 -81.1467 85° East 462 532 39,000  Level Cleveland Center
Fri 09:55:10 PM 42.5386 -80.9747 86° East 457 526 39,000  Level Cleveland Center
Fri 09:56:10 PM 42.5497 -80.7944 85° East 468 539 39,000  Level Cleveland Center
Fri 09:57:10 PM 42.5603 -80.6197 85° East 468 539 39,000  Level Cleveland Center
Fri 09:58:10 PM 42.5728 -80.4308 85° East 468 539 39,000  Level Cleveland Center
Fri 09:59:10 PM 42.5806 -80.2506 87° East 468 539 39,000  Level Cleveland Center
Fri 10:00:10 PM 42.5903 -80.0728 86° East 463 533 39,000  Level Cleveland Center
Fri 10:01:10 PM 42.6000 -79.8978 86° East 463 533 39,000  Level Cleveland Center
Fri 10:02:10 PM 42.6092 -79.7200 86° East 463 533 39,000  Level Cleveland Center
Fri 10:03:10 PM 42.6203 -79.5450 85° East 463 533 39,000  Level Cleveland Center
Fri 10:04:10 PM 42.6269 -79.3669 87° East 463 533 39,000  Level Cleveland Center
Fri 10:05:10 PM 42.6353 -79.1892 86° East 463 533 39,000  Level Cleveland Center
Fri 10:06:10 PM 42.6433 -79.0111 86° East 463 533 39,000  Level Cleveland Center
Fri 10:07:11 PM 42.6492 -78.8358 87° East 463 533 39,000  Level Cleveland Center
Fri 10:08:10 PM 42.6589 -78.6550 86° East 469 540 39,000 -50 Level Cleveland Center
Fri 10:09:10 PM 42.6639 -78.4767 88° East 469 540 38,900 -450 Descending Cleveland Center
Fri 10:10:10 PM 42.6711 -78.2986 87° East 469 540 38,100 -900 Descending Cleveland Center
Fri 10:11:10 PM 42.6778 -78.1178 87° East 474 545 37,100 -1,000 Descending Cleveland Center
Fri 10:12:10 PM 42.6842 -77.9394 87° East 474 545 36,100 -1,000 Descending Cleveland Center
Fri 10:13:10 PM 42.6906 -77.7639 87° East 474 545 35,100 -984 Descending Cleveland Center
Fri 10:15:19 PM 42.7022 -77.3656 88° East 474 545 33,000 -989 Descending Boston Center
Fri 10:16:18 PM 42.7058 -77.1850 88° East 474 545 32,000 -1,008 Descending Boston Center
Fri 10:17:18 PM 42.7111 -77.0044 88° East 474 545 31,000 -992 Descending Boston Center
Fri 10:18:19 PM 42.7161 -76.8236 88° East 473 544 30,000 -950 Descending Boston Center
Fri 10:19:18 PM 42.7211 -76.6375 88° East 473 544 29,100 -504 Descending Boston Center
Fri 10:20:18 PM 42.7256 -76.4511 88° East 485 558 29,000 -50 Descending Boston Center
Fri 10:21:18 PM 42.7300 -76.2619 88° East 490 564 29,000 -50 Level Boston Center
Fri 10:22:19 PM 42.7339 -76.0783 88° East 495 570 28,900  Descending Boston Center
Fri 10:23:19 PM 42.7358 -75.8892 89° East 495 570 29,000 50 Climbing Boston Center
Fri 10:24:19 PM 42.7369 -75.7053 89° East 489 563 29,000 -1,150 Level Boston Center
Fri 10:25:19 PM 42.7400 -75.5217 89° East 484 557 26,700 -2,700 Descending Boston Center
Fri 10:26:19 PM 42.7797 -75.3567 72° East 465 535 23,600 -3,000 Descending Boston Center
Fri 10:27:19 PM 42.8214 -75.1972 70° East 457 526 20,700 -2,800 Descending Boston Center
Fri 10:28:19 PM 42.8667 -75.0464 68° East 439 505 18,000 -2,850 Descending Boston Center
Fri 10:29:19 PM 42.9094 -74.9008 68° East 433 498 15,000 -3,000 Descending Boston Center
Fri 10:30:19 PM 42.9475 -74.7747 68° East 400 460 12,000 -2,000 Descending Boston Center
Fri 10:31:19 PM 42.9961 -74.6431 63° Northeast 360 414 11,000 -500 Descending Boston Center
Fri 10:32:19 PM 43.0336 -74.5308 65° Northeast 350 403 11,000  Level Boston Center
Fri 10:33:18 PM 43.0653 -74.3925 73° East 350 403 11,000 -550 Level Boston Center
Fri 10:34:19 PM 43.0272 -74.2919 117° Southeast 301 346 9,900 -1,388 Descending Boston Center
Fri 10:35:19 PM 42.9764 -74.2053 129° Southeast 289 333 8,200 -1,664 Descending Boston Center
Fri 10:36:18 PM 42.9339 -74.1275 127° Southeast 284 327 6,600 -1,714 Descending Boston Center
Fri 10:37:18 PM 42.8831 -74.0383 128° Southeast 279 321 4,800 -1,400 Descending Boston Center
Fri 10:38:18 PM 42.8381 -73.9775 135° Southeast 273 314 3,800 -744 Descending Boston Center
Fri 10:39:19 PM 42.7867 -73.9281 145° Southeast 243 280 3,300 -744 Descending Boston Center
Fri 10:40:19 PM 42.7478 -73.8819 139° Southeast 210 242 2,300 -1,000 Descending Boston Center

Login

Don't have an account? Register now (free) for customized features, flight alerts, and more!